Time;durP1;ratioP1;P1;durP2;ratioP2;P2;SDS_P1;SDS_P2;PMS_P1;PMS_P2;Temp;Humidity;BMP_temperature;BMP_pressure;BME280_temperature;BME280_humidity;BME280_pressure;Samples;Min_cycle;Max_cycle;Signal;HPM_P1;HPM_P2
2023/08/17 00:00:25;;;;;;;8.37;6.93;;;20.40;99.90;;;;;;5031233;28;20792;-71
2023/08/17 00:02:50;;;;;;;6.53;5.83;;;20.30;99.90;;;;;;5032468;28;20233;-71
2023/08/17 00:05:16;;;;;;;8.00;6.50;;;20.30;99.90;;;;;;5034250;28;20185;-70
2023/08/17 00:07:42;;;;;;;6.57;5.87;;;20.30;99.90;;;;;;5034714;28;20200;-71
2023/08/17 00:10:07;;;;;;;7.27;6.67;;;20.40;99.90;;;;;;5035176;28;20194;-71
2023/08/17 00:12:33;;;;;;;6.77;6.27;;;20.30;99.90;;;;;;5036007;28;20353;-71
2023/08/17 00:14:59;;;;;;;7.00;6.40;;;20.30;99.90;;;;;;5033856;28;20771;-71
2023/08/17 00:17:24;;;;;;;6.70;5.97;;;20.30;99.90;;;;;;5036129;28;20206;-69
2023/08/17 00:19:50;;;;;;;7.10;6.00;;;20.30;99.90;;;;;;5031420;28;20532;-69
2023/08/17 00:22:15;;;;;;;9.20;7.53;;;20.30;99.90;;;;;;5026925;28;20614;-69
2023/08/17 00:24:44;;;;;;;7.10;6.40;;;20.30;99.90;;;;;;5029369;28;20182;-69
2023/08/17 00:27:10;;;;;;;7.22;6.53;;;20.30;99.90;;;;;;5032962;28;21284;-69
2023/08/17 00:29:36;;;;;;;6.90;6.30;;;20.30;99.90;;;;;;5033885;28;20181;-69
2023/08/17 00:32:02;;;;;;;7.78;6.93;;;20.40;99.90;;;;;;5033450;28;20455;-70
2023/08/17 00:34:28;;;;;;;8.07;7.25;;;20.40;99.90;;;;;;5027743;28;20191;-69
2023/08/17 00:36:53;;;;;;;7.10;6.60;;;20.80;99.90;;;;;;5027524;28;20758;-70
2023/08/17 00:39:19;;;;;;;8.17;6.50;;;20.30;99.90;;;;;;5027068;28;20650;-69
2023/08/17 00:41:45;;;;;;;7.00;6.40;;;20.30;99.90;;;;;;5037400;28;20197;-70
2023/08/17 00:44:11;;;;;;;7.67;7.07;;;20.20;99.90;;;;;;5027462;28;20186;-69
2023/08/17 00:46:38;;;;;;;8.43;7.60;;;20.30;99.90;;;;;;5034110;28;20465;-69
2023/08/17 00:49:04;;;;;;;8.10;6.20;;;20.20;99.90;;;;;;5036698;28;20602;-69
2023/08/17 00:51:30;;;;;;;8.73;7.90;;;20.20;99.90;;;;;;5034302;28;20195;-69
2023/08/17 00:53:58;;;;;;;7.87;7.27;;;20.10;99.90;;;;;;5036172;28;20793;-69
2023/08/17 00:56:25;;;;;;;8.30;7.55;;;20.10;99.90;;;;;;5030463;28;20937;-69
2023/08/17 00:58:51;;;;;;;8.63;7.93;;;20.20;99.90;;;;;;5035903;28;20197;-69
2023/08/17 01:01:17;;;;;;;8.27;7.60;;;20.20;99.90;;;;;;5026280;28;20186;-69
2023/08/17 01:03:42;;;;;;;8.13;7.50;;;20.20;99.90;;;;;;5035392;28;20183;-69
2023/08/17 01:06:09;;;;;;;8.20;7.53;;;20.20;99.90;;;;;;5031056;28;20990;-69
2023/08/17 01:08:39;;;;;;;7.50;6.90;;;20.30;99.90;;;;;;5027389;28;20194;-70
2023/08/17 01:11:29;;;;;;;8.23;7.43;;;20.30;99.90;;;;;;5038886;28;20269;-69
2023/08/17 01:14:30;;;;;;;8.95;7.45;;;20.30;99.90;;;;;;5028671;28;20617;-69
2023/08/17 01:17:14;;;;;;;7.80;7.10;;;20.30;99.90;;;;;;5029965;28;20197;-69
2023/08/17 01:19:41;;;;;;;9.35;7.43;;;20.40;99.90;;;;;;5033267;28;20201;-69
2023/08/17 01:22:10;;;;;;;8.05;7.35;;;20.50;99.90;;;;;;5029796;28;20214;-70
2023/08/17 01:24:35;;;;;;;7.90;7.20;;;20.50;99.90;;;;;;5037773;28;20593;-69
2023/08/17 01:27:01;;;;;;;7.97;7.17;;;20.50;99.90;;;;;;5033192;28;20209;-69
2023/08/17 01:29:27;;;;;;;8.77;7.80;;;20.50;99.90;;;;;;5034029;28;20235;-69
2023/08/17 01:31:57;;;;;;;7.40;6.80;;;20.50;99.90;;;;;;5027853;28;20178;-69
2023/08/17 01:34:27;;;;;;;7.85;7.15;;;20.40;99.90;;;;;;5030329;28;20182;-69
2023/08/17 01:36:58;;;;;;;8.20;7.50;;;20.50;99.90;;;;;;5029897;28;20725;-70
2023/08/17 01:39:30;;;;;;;8.88;7.97;;;20.40;99.90;;;;;;5029271;28;20340;-69
2023/08/17 01:41:58;;;;;;;8.10;7.35;;;20.50;99.90;;;;;;5030084;28;20202;-69
2023/08/17 01:44:25;;;;;;;8.63;7.85;;;20.50;99.90;;;;;;5031986;28;20177;-69
2023/08/17 01:46:51;;;;;;;7.93;7.22;;;20.60;99.90;;;;;;5034695;28;20216;-69
2023/08/17 01:49:17;;;;;;;10.87;7.80;;;20.50;99.90;;;;;;5033597;28;20178;-69
2023/08/17 01:51:42;;;;;;;7.53;6.73;;;20.50;99.90;;;;;;5033630;28;20491;-69
2023/08/17 01:54:08;;;;;;;8.13;7.43;;;20.50;99.90;;;;;;5028645;28;20221;-70
2023/08/17 01:56:34;;;;;;;6.93;6.43;;;20.50;99.90;;;;;;5032765;28;20785;-69
2023/08/17 01:58:59;;;;;;;7.70;7.00;;;20.60;99.90;;;;;;5025627;28;20182;-69
2023/08/17 02:01:25;;;;;;;7.80;7.10;;;20.60;99.90;;;;;;5030563;28;20275;-70
2023/08/17 02:03:51;;;;;;;7.55;6.68;;;20.60;99.90;;;;;;5021608;28;20178;-70
2023/08/17 02:06:16;;;;;;;7.70;6.90;;;20.60;99.90;;;;;;5027576;28;20197;-69
2023/08/17 02:08:42;;;;;;;8.30;7.70;;;20.50;99.90;;;;;;5031160;28;20182;-69
2023/08/17 02:11:09;;;;;;;7.10;6.40;;;20.60;99.90;;;;;;5030545;28;20206;-69
2023/08/17 02:13:36;;;;;;;7.60;7.00;;;20.70;99.90;;;;;;5030418;28;20249;-70
2023/08/17 02:16:03;;;;;;;7.30;6.60;;;20.70;99.90;;;;;;5035768;28;20202;-69
2023/08/17 02:18:31;;;;;;;8.05;7.45;;;20.80;99.90;;;;;;5026995;28;20957;-70
2023/08/17 02:20:57;;;;;;;6.93;6.33;;;20.80;99.90;;;;;;5035668;28;20194;-69
2023/08/17 02:23:22;;;;;;;8.30;7.50;;;20.80;99.90;;;;;;5035443;28;21272;-69
2023/08/17 02:25:48;;;;;;;8.23;7.53;;;20.80;99.90;;;;;;5031907;28;20581;-69
2023/08/17 02:28:13;;;;;;;8.37;7.67;;;20.80;99.90;;;;;;5028992;28;20212;-69
2023/08/17 02:30:39;;;;;;;7.90;7.20;;;20.90;99.90;;;;;;5032820;28;20182;-70
2023/08/17 02:33:05;;;;;;;8.23;7.53;;;20.90;99.90;;;;;;5032965;28;20225;-69
2023/08/17 02:35:31;;;;;;;8.43;7.73;;;20.90;99.90;;;;;;5031437;28;20230;-70
2023/08/17 02:37:56;;;;;;;7.70;7.10;;;20.90;99.90;;;;;;5027558;28;20504;-70
2023/08/17 02:40:22;;;;;;;8.53;7.93;;;20.90;99.90;;;;;;5030257;28;20935;-69
2023/08/17 02:42:47;;;;;;;8.60;7.80;;;20.90;99.90;;;;;;5021669;28;20254;-69
2023/08/17 02:45:13;;;;;;;8.70;7.80;;;21.00;99.90;;;;;;5035244;28;20231;-69
2023/08/17 02:47:38;;;;;;;8.17;7.37;;;21.00;99.90;;;;;;5032897;28;20386;-69
2023/08/17 02:50:05;;;;;;;7.73;6.87;;;20.90;99.90;;;;;;5033192;28;20263;-70
2023/08/17 02:52:30;;;;;;;8.60;7.90;;;20.90;99.90;;;;;;5029291;28;20186;-70
2023/08/17 02:54:56;;;;;;;9.23;8.43;;;20.90;99.90;;;;;;5032609;28;20563;-69
2023/08/17 02:57:21;;;;;;;8.73;7.93;;;20.90;99.90;;;;;;5028810;28;20676;-69
2023/08/17 02:59:47;;;;;;;8.80;8.00;;;21.00;99.90;;;;;;5029095;28;20532;-69
2023/08/17 03:02:13;;;;;;;10.83;9.83;;;21.00;99.90;;;;;;5026739;28;20225;-70
2023/08/17 03:04:38;;;;;;;9.67;8.10;;;21.00;99.90;;;;;;5024344;28;20674;-70
2023/08/17 03:07:04;;;;;;;9.47;8.40;;;21.10;99.90;;;;;;5034262;28;20214;-69
2023/08/17 03:09:29;;;;;;;11.30;10.20;;;21.10;99.90;;;;;;5031891;28;20205;-69
2023/08/17 03:11:55;;;;;;;9.90;9.00;;;21.10;99.90;;;;;;5028945;28;20290;-69
2023/08/17 03:14:20;;;;;;;12.50;11.17;;;21.20;99.90;;;;;;5033868;28;20228;-69
2023/08/17 03:16:46;;;;;;;14.13;12.63;;;21.10;99.90;;;;;;5024773;28;20213;-69
2023/08/17 03:19:11;;;;;;;14.30;13.00;;;21.00;99.90;;;;;;5034417;28;20186;-70
2023/08/17 03:21:38;;;;;;;13.73;12.33;;;21.10;99.90;;;;;;5024617;28;20436;-69
2023/08/17 03:24:04;;;;;;;12.77;11.47;;;21.10;99.90;;;;;;5034104;28;20208;-69
2023/08/17 03:26:29;;;;;;;13.53;12.23;;;21.20;99.90;;;;;;5032966;28;20459;-70
2023/08/17 03:28:55;;;;;;;14.47;11.53;;;21.20;99.90;;;;;;5033957;28;20448;-69
2023/08/17 03:31:23;;;;;;;12.83;11.37;;;21.20;99.90;;;;;;5031495;28;20189;-69
2023/08/17 03:33:49;;;;;;;12.93;10.90;;;21.20;99.90;;;;;;5030832;28;20185;-69
2023/08/17 03:36:15;;;;;;;12.20;11.00;;;21.20;99.90;;;;;;5037306;28;20194;-69
2023/08/17 03:38:41;;;;;;;12.20;11.10;;;21.20;99.90;;;;;;5028096;28;20192;-69
2023/08/17 03:41:07;;;;;;;11.70;10.70;;;21.00;99.90;;;;;;5031025;28;20289;-69
2023/08/17 03:43:32;;;;;;;13.55;12.23;;;21.10;99.90;;;;;;5029909;28;20213;-69
2023/08/17 03:45:58;;;;;;;13.63;12.23;;;21.00;99.90;;;;;;5033845;28;20206;-69
2023/08/17 03:48:24;;;;;;;12.17;10.97;;;20.90;99.90;;;;;;5031873;28;20174;-70
2023/08/17 03:50:54;;;;;;;13.67;12.27;;;20.80;99.90;;;;;;5031265;28;20257;-70
2023/08/17 03:53:19;;;;;;;13.20;11.90;;;20.90;99.90;;;;;;5026286;28;20509;-69
2023/08/17 03:55:49;;;;;;;14.47;13.00;;;20.90;99.90;;;;;;5031625;28;20674;-69
2023/08/17 03:58:15;;;;;;;13.55;12.18;;;20.90;99.90;;;;;;5042984;28;20200;-69
2023/08/17 04:00:40;;;;;;;13.47;12.13;;;20.70;99.90;;;;;;5028664;28;20542;-70
2023/08/17 04:03:06;;;;;;;15.00;13.50;;;20.70;99.90;;;;;;5031508;28;20222;-69
2023/08/17 04:05:32;;;;;;;14.93;13.52;;;20.60;99.90;;;;;;5031462;28;20208;-69
2023/08/17 04:08:03;;;;;;;13.13;11.93;;;20.60;99.90;;;;;;5025304;28;20178;-70
2023/08/17 04:10:29;;;;;;;15.00;13.50;;;20.70;99.90;;;;;;5031980;28;20201;-69
2023/08/17 04:12:56;;;;;;;15.53;13.90;;;20.70;99.90;;;;;;5034528;28;20284;-70
2023/08/17 04:15:22;;;;;;;14.20;12.88;;;20.80;99.90;;;;;;5033961;28;20436;-70
2023/08/17 04:17:47;;;;;;;13.50;12.10;;;20.80;99.90;;;;;;5031216;28;20198;-69
2023/08/17 04:20:13;;;;;;;16.27;14.77;;;20.80;99.90;;;;;;5031507;28;20277;-70
2023/08/17 04:22:38;;;;;;;15.23;13.67;;;20.50;99.90;;;;;;5033208;28;20233;-69
2023/08/17 04:25:04;;;;;;;15.20;13.70;;;20.80;99.90;;;;;;5033743;28;20204;-70
2023/08/17 04:27:30;;;;;;;16.50;14.80;;;20.80;99.90;;;;;;5038326;28;20206;-69
2023/08/17 04:29:55;;;;;;;15.70;14.20;;;20.80;99.90;;;;;;5027975;28;20436;-69
2023/08/17 04:32:21;;;;;;;15.43;13.40;;;20.90;99.90;;;;;;5032290;28;20182;-69
2023/08/17 04:34:48;;;;;;;15.47;13.97;;;21.00;99.90;;;;;;5033956;28;20192;-70
2023/08/17 04:37:13;;;;;;;15.77;13.88;;;21.00;99.90;;;;;;5031713;28;20201;-69
2023/08/17 04:39:40;;;;;;;15.07;13.67;;;21.00;99.90;;;;;;5024990;28;20175;-70
2023/08/17 04:42:06;;;;;;;14.70;13.20;;;21.00;99.90;;;;;;5026904;28;20464;-70
2023/08/17 04:44:31;;;;;;;14.73;13.23;;;21.00;99.90;;;;;;5034219;28;20221;-70
2023/08/17 04:46:57;;;;;;;15.30;13.33;;;21.00;99.90;;;;;;5032076;28;20205;-69
2023/08/17 04:49:23;;;;;;;16.40;14.80;;;21.10;99.90;;;;;;5029662;28;20179;-70
2023/08/17 04:51:48;;;;;;;15.30;13.70;;;21.10;99.90;;;;;;5024258;28;20216;-70
2023/08/17 04:54:14;;;;;;;18.00;14.70;;;21.10;99.90;;;;;;5027426;28;20268;-69
2023/08/17 04:56:39;;;;;;;16.33;14.47;;;21.20;99.90;;;;;;5029452;28;20583;-70
2023/08/17 04:59:05;;;;;;;16.70;14.90;;;21.20;99.90;;;;;;5026925;28;20178;-70
2023/08/17 05:01:31;;;;;;;17.13;15.40;;;21.30;99.90;;;;;;5024598;28;20204;-74
2023/08/17 05:03:57;;;;;;;15.73;14.23;;;21.20;99.90;;;;;;5025025;28;20221;-72
2023/08/17 05:06:23;;;;;;;14.80;13.30;;;21.20;99.90;;;;;;5027126;28;20678;-63
2023/08/17 05:08:48;;;;;;;15.37;13.87;;;21.20;99.90;;;;;;5028621;28;20179;-63
2023/08/17 05:11:14;;;;;;;17.03;15.40;;;21.20;99.90;;;;;;5028385;28;20664;-63
2023/08/17 05:13:39;;;;;;;16.90;15.20;;;21.20;99.90;;;;;;5032435;28;20212;-65
2023/08/17 05:16:05;;;;;;;18.33;15.60;;;21.20;99.90;;;;;;5032720;28;20285;-63
2023/08/17 05:18:31;;;;;;;16.40;14.60;;;21.10;99.90;;;;;;5029054;28;20224;-61
2023/08/17 05:20:56;;;;;;;15.57;14.07;;;21.10;99.90;;;;;;5028347;28;20201;-62
2023/08/17 05:23:22;;;;;;;15.53;14.00;;;21.20;99.90;;;;;;5028579;28;20225;-62
2023/08/17 05:25:47;;;;;;;18.43;16.20;;;21.60;99.90;;;;;;5029054;28;20296;-61
2023/08/17 05:28:13;;;;;;;17.17;15.37;;;21.30;99.90;;;;;;5028575;28;20256;-61
2023/08/17 05:30:39;;;;;;;15.93;14.33;;;21.30;99.90;;;;;;5031774;28;20186;-61
2023/08/17 05:33:05;;;;;;;16.53;14.90;;;21.40;99.90;;;;;;5028794;28;20566;-62
2023/08/17 05:35:30;;;;;;;15.70;14.10;;;21.50;99.90;;;;;;5026779;28;20237;-61
2023/08/17 05:37:56;;;;;;;16.00;14.50;;;21.40;99.90;;;;;;5026992;28;20218;-61
2023/08/17 05:40:21;;;;;;;14.60;13.30;;;21.50;99.90;;;;;;5026926;28;20240;-62
2023/08/17 05:42:47;;;;;;;14.73;13.33;;;21.60;99.90;;;;;;5025605;28;20863;-63
2023/08/17 05:45:12;;;;;;;15.07;13.57;;;21.60;99.90;;;;;;5026124;28;20208;-63
2023/08/17 05:47:38;;;;;;;13.57;12.27;;;21.60;99.90;;;;;;5028227;28;20185;-63
2023/08/17 05:50:04;;;;;;;13.23;11.93;;;21.60;99.90;;;;;;5027354;28;20594;-61
2023/08/17 05:52:29;;;;;;;15.77;14.20;;;21.60;99.90;;;;;;5023034;28;20594;-62
2023/08/17 05:54:55;;;;;;;14.50;13.10;;;22.10;99.90;;;;;;5026852;28;20959;-61
2023/08/17 05:57:20;;;;;;;14.40;12.90;;;21.60;99.90;;;;;;5031437;28;20271;-62
2023/08/17 05:59:46;;;;;;;15.10;13.60;;;21.80;99.90;;;;;;5024373;28;20200;-63
2023/08/17 06:02:11;;;;;;;13.83;12.53;;;21.80;99.90;;;;;;5034062;28;20574;-64
2023/08/17 06:04:37;;;;;;;15.80;14.20;;;21.90;99.90;;;;;;5029318;28;20719;-62
2023/08/17 06:07:03;;;;;;;14.97;13.47;;;22.00;99.90;;;;;;5028655;28;20212;-67
2023/08/17 06:09:28;;;;;;;15.50;13.90;;;22.00;99.90;;;;;;5031547;28;20200;-66
2023/08/17 06:11:54;;;;;;;15.30;13.83;;;22.10;99.90;;;;;;5035321;28;20533;-67
2023/08/17 06:14:19;;;;;;;14.37;13.07;;;22.10;99.90;;;;;;5023062;28;20527;-66
2023/08/17 06:16:45;;;;;;;16.90;15.10;;;22.20;99.90;;;;;;5025329;28;20198;-70
2023/08/17 06:19:10;;;;;;;14.97;13.57;;;22.10;99.90;;;;;;5026464;28;20329;-69
2023/08/17 06:21:36;;;;;;;14.97;13.57;;;22.20;99.90;;;;;;5024995;28;20220;-67
2023/08/17 06:24:02;;;;;;;10.17;8.63;;;22.30;99.90;;;;;;5022297;28;20190;-66
2023/08/17 06:26:27;;;;;;;14.80;13.20;;;22.50;99.90;;;;;;5027308;28;20285;-74
2023/08/17 06:28:53;;;;;;;14.77;13.20;;;22.70;99.90;;;;;;5022128;28;20182;-78
2023/08/17 06:31:18;;;;;;;14.93;13.40;;;22.70;99.90;;;;;;5023892;28;20179;-79
2023/08/17 06:33:44;;;;;;;15.17;13.57;;;22.90;99.90;;;;;;5025850;28;20190;-80
2023/08/17 06:36:13;;;;;;;15.87;14.37;;;23.00;99.90;;;;;;5032340;28;20286;-79
2023/08/17 06:38:38;;;;;;;15.80;14.13;;;23.00;99.90;;;;;;5027102;28;20449;-80
2023/08/17 06:41:04;;;;;;;15.70;14.20;;;23.10;99.90;;;;;;5024283;28;20447;-81
2023/08/17 06:43:29;;;;;;;15.00;13.43;;;23.20;99.90;;;;;;5019098;28;20408;-83
2023/08/17 06:45:56;;;;;;;16.37;14.67;;;23.10;99.90;;;;;;5024650;28;20209;-80
2023/08/17 06:48:21;;;;;;;14.43;13.10;;;23.20;99.90;;;;;;5027546;28;20257;-80
2023/08/17 06:50:47;;;;;;;17.43;15.70;;;23.00;99.90;;;;;;5020403;28;20444;-80
2023/08/17 06:53:13;;;;;;;15.70;14.10;;;23.00;99.90;;;;;;5028540;28;20265;-80
2023/08/17 06:55:38;;;;;;;17.90;13.10;;;23.10;99.90;;;;;;5023968;28;20571;-80
2023/08/17 06:58:04;;;;;;;16.70;14.60;;;23.10;99.90;;;;;;5028544;28;20324;-80
2023/08/17 07:00:29;;;;;;;14.70;13.30;;;23.40;99.90;;;;;;5023465;28;20182;-79
2023/08/17 07:02:55;;;;;;;15.33;13.87;;;23.50;99.90;;;;;;5021335;28;20218;-81
2023/08/17 07:05:20;;;;;;;14.37;13.07;;;23.60;99.90;;;;;;5022886;28;20190;-74
2023/08/17 07:07:46;;;;;;;13.97;12.67;;;23.50;99.90;;;;;;5022375;28;20191;-74
2023/08/17 07:10:12;;;;;;;18.70;14.17;;;23.80;99.90;;;;;;5027027;28;20208;-69
2023/08/17 07:12:38;;;;;;;14.73;13.43;;;24.00;99.90;;;;;;5029083;28;20183;-69
2023/08/17 07:15:04;;;;;;;12.70;11.70;;;24.30;99.90;;;;;;5023312;28;20918;-69
2023/08/17 07:17:30;;;;;;;13.10;11.80;;;24.50;99.90;;;;;;5017447;28;20528;-69
2023/08/17 07:19:56;;;;;;;13.03;11.73;;;24.80;99.90;;;;;;5024480;28;21166;-70
2023/08/17 07:22:21;;;;;;;12.77;11.53;;;24.90;99.90;;;;;;5021293;28;20216;-78
2023/08/17 07:24:47;;;;;;;13.50;12.13;;;24.80;99.90;;;;;;5023928;28;20556;-79
2023/08/17 07:27:12;;;;;;;13.37;12.23;;;25.00;99.90;;;;;;5024220;28;20209;-79
2023/08/17 07:29:38;;;;;;;13.40;12.10;;;25.30;99.90;;;;;;5026032;28;20188;-77
2023/08/17 07:32:04;;;;;;;14.80;13.50;;;25.60;99.90;;;;;;5032506;28;20197;-78
2023/08/17 07:34:31;;;;;;;13.53;12.23;;;25.90;99.90;;;;;;5027361;28;20195;-67
2023/08/17 07:36:56;;;;;;;12.53;11.23;;;26.60;99.90;;;;;;5026143;28;20671;-73
2023/08/17 07:39:22;;;;;;;11.07;10.07;;;28.10;99.90;;;;;;5020455;28;20450;-73
2023/08/17 07:41:48;;;;;;;11.93;10.80;;;30.10;99.50;;;;;;5027709;28;20466;-74
2023/08/17 07:44:13;;;;;;;10.87;9.50;;;32.70;94.30;;;;;;5023968;28;20185;-76
2023/08/17 07:46:39;;;;;;;9.77;9.07;;;34.50;89.50;;;;;;5033695;28;20225;-75
2023/08/17 07:49:04;;;;;;;10.57;9.37;;;35.80;82.40;;;;;;5027408;28;20188;-75
2023/08/17 07:51:33;;;;;;;8.53;7.83;;;36.00;79.20;;;;;;5028449;28;20205;-75
2023/08/17 07:53:59;;;;;;;10.10;9.27;;;36.30;76.90;;;;;;5024427;28;20177;-75
2023/08/17 07:56:25;;;;;;;9.67;8.63;;;36.60;74.20;;;;;;5021846;28;20465;-75
2023/08/17 07:58:51;;;;;;;10.37;9.47;;;37.50;71.10;;;;;;5023491;28;20486;-74
2023/08/17 08:01:16;;;;;;;10.10;9.30;;;37.30;70.40;;;;;;5029377;28;20183;-76
2023/08/17 08:03:42;;;;;;;11.10;10.30;;;37.20;69.70;;;;;;5021170;28;20255;-77
2023/08/17 08:06:07;;;;;;;10.47;9.40;;;36.80;69.50;;;;;;5026735;28;20199;-78
2023/08/17 08:08:33;;;;;;;11.40;10.50;;;35.80;72.80;;;;;;5030582;28;20210;-78
2023/08/17 08:10:59;;;;;;;10.73;9.83;;;35.80;73.00;;;;;;5030956;28;20190;-77
2023/08/17 08:13:24;;;;;;;10.87;9.87;;;36.00;71.70;;;;;;5031810;28;20643;-78
2023/08/17 08:15:50;;;;;;;11.30;10.30;;;35.60;71.80;;;;;;5026227;28;20216;-77
2023/08/17 08:18:16;;;;;;;10.37;9.50;;;34.50;74.30;;;;;;5030129;28;20186;-79
2023/08/17 08:20:41;;;;;;;10.43;9.53;;;35.40;75.70;;;;;;5034431;28;20827;-77
2023/08/17 08:23:07;;;;;;;10.27;9.40;;;37.00;70.10;;;;;;5021454;28;20221;-77
2023/08/17 08:25:32;;;;;;;12.40;11.30;;;37.10;68.60;;;;;;5027509;28;20680;-78
2023/08/17 08:27:58;;;;;;;9.83;8.93;;;36.40;69.10;;;;;;5022544;28;20725;-77
2023/08/17 08:30:23;;;;;;;10.20;9.40;;;36.10;70.70;;;;;;5027184;28;20183;-77
2023/08/17 08:32:50;;;;;;;10.43;9.53;;;36.30;69.60;;;;;;5019484;28;20189;-77
2023/08/17 08:35:15;;;;;;;13.47;12.30;;;38.10;66.80;;;;;;5024058;28;20217;-77
2023/08/17 08:37:41;;;;;;;11.00;10.00;;;39.10;62.20;;;;;;5024339;28;20461;-76
2023/08/17 08:40:11;;;;;;;10.50;9.63;;;38.90;61.70;;;;;;5021744;28;20196;-77
2023/08/17 08:42:36;;;;;;;9.27;8.47;;;38.40;63.10;;;;;;5026419;28;20297;-78
2023/08/17 08:45:02;;;;;;;10.63;9.93;;;38.30;62.60;;;;;;5017606;28;20966;-74
2023/08/17 08:47:31;;;;;;;11.93;11.10;;;38.60;61.70;;;;;;5021372;28;20202;-74
2023/08/17 08:50:02;;;;;;;9.90;9.20;;;38.00;61.50;;;;;;5019509;28;20284;-74
2023/08/17 08:52:48;;;;;;;10.03;9.33;;;38.00;60.70;;;;;;5016604;28;20429;-74
2023/08/17 08:55:17;;;;;;;8.90;8.17;;;36.90;64.00;;;;;;5022736;28;20488;-74
2023/08/17 08:57:43;;;;;;;10.13;9.23;;;37.00;64.80;;;;;;5024720;28;20505;-73
2023/08/17 09:00:11;;;;;;;11.13;9.40;;;37.50;62.80;;;;;;5016925;28;20560;-73
2023/08/17 09:02:38;;;;;;;9.33;8.63;;;38.70;61.60;;;;;;5023854;28;20202;-73
2023/08/17 09:05:06;;;;;;;9.93;9.23;;;39.00;59.90;;;;;;5020508;28;20445;-73
2023/08/17 09:07:32;;;;;;;8.57;7.70;;;38.10;59.50;;;;;;5023423;28;20454;-74
2023/08/17 09:09:58;;;;;;;10.60;9.70;;;38.90;59.80;;;;;;5023413;28;20820;-73
2023/08/17 09:12:25;;;;;;;9.03;8.43;;;39.30;58.20;;;;;;5026446;28;20448;-72
2023/08/17 09:14:50;;;;;;;9.20;8.37;;;39.70;57.90;;;;;;5023318;28;20489;-72
2023/08/17 09:17:31;;;;;;;10.30;9.50;;;39.60;57.10;;;;;;5018318;28;20934;-72
2023/08/17 09:19:57;;;;;;;8.27;7.67;;;39.20;58.00;;;;;;5023664;28;20862;-72
2023/08/17 09:22:38;;;;;;;10.27;9.43;;;39.20;57.70;;;;;;5025199;28;20528;-72
2023/08/17 09:25:04;;;;;;;8.23;7.53;;;38.90;58.00;;;;;;5020517;28;20232;-72
2023/08/17 09:27:32;;;;;;;8.90;8.00;;;38.60;59.10;;;;;;5024957;28;20589;-72
2023/08/17 09:30:06;;;;;;;9.20;8.50;;;37.60;59.90;;;;;;5024685;28;20449;-72
2023/08/17 09:32:32;;;;;;;12.70;11.70;;;36.50;62.60;;;;;;5027583;28;20448;-73
2023/08/17 09:35:01;;;;;;;8.73;8.00;;;35.60;65.60;;;;;;5032077;28;20447;-73
2023/08/17 09:37:27;;;;;;;8.10;7.40;;;34.70;69.50;;;;;;5020121;28;20882;-74
2023/08/17 09:39:54;;;;;;;10.50;9.60;;;33.60;72.80;;;;;;5029926;28;20460;-73
2023/08/17 09:42:21;;;;;;;10.00;9.13;;;33.00;75.60;;;;;;5019666;28;20213;-73
2023/08/17 09:44:47;;;;;;;9.80;8.90;;;32.20;79.70;;;;;;5027787;28;20560;-73
2023/08/17 09:47:12;;;;;;;9.37;8.53;;;31.80;81.50;;;;;;5025378;28;20581;-74
2023/08/17 09:49:38;;;;;;;9.37;8.57;;;31.50;82.80;;;;;;5026788;28;20188;-73
2023/08/17 09:52:04;;;;;;;10.60;9.70;;;31.20;84.60;;;;;;5021942;28;20689;-73
2023/08/17 09:54:31;;;;;;;9.67;8.87;;;31.20;85.60;;;;;;5025436;28;20449;-73
2023/08/17 09:56:58;;;;;;;10.67;9.80;;;31.40;86.10;;;;;;5017634;28;20216;-73
2023/08/17 09:59:25;;;;;;;9.43;8.63;;;31.20;87.20;;;;;;5017384;28;20514;-73
2023/08/17 10:01:51;;;;;;;11.20;10.30;;;31.20;87.30;;;;;;5024907;28;20508;-72
2023/08/17 10:04:24;;;;;;;9.47;8.67;;;30.80;88.00;;;;;;5027348;28;20484;-74
2023/08/17 10:07:00;;;;;;;10.00;9.10;;;30.60;90.10;;;;;;5026698;28;20457;-75
2023/08/17 10:09:33;;;;;;;9.87;9.07;;;30.50;90.00;;;;;;5016835;28;20579;-75
2023/08/17 10:12:06;;;;;;;10.67;9.67;;;30.50;90.30;;;;;;5023882;28;20449;-74
2023/08/17 10:14:36;;;;;;;12.13;11.10;;;30.70;90.20;;;;;;5026099;28;20455;-74
2023/08/17 10:17:10;;;;;;;9.87;8.97;;;30.20;91.30;;;;;;5038049;28;20519;-75
2023/08/17 10:19:52;;;;;;;10.30;9.33;;;30.50;91.50;;;;;;5029250;28;20532;-74
2023/08/17 10:22:18;;;;;;;11.23;10.33;;;30.40;91.10;;;;;;5021833;28;20463;-74
2023/08/17 10:24:45;;;;;;;10.70;9.60;;;30.40;92.40;;;;;;5027831;28;20504;-74
2023/08/17 10:27:11;;;;;;;10.70;9.80;;;30.00;92.50;;;;;;5023033;28;20209;-74
2023/08/17 10:29:39;;;;;;;10.80;9.90;;;29.90;91.80;;;;;;5023235;28;20446;-75
2023/08/17 10:32:07;;;;;;;12.93;11.73;;;29.70;92.80;;;;;;5024715;28;20518;-75
2023/08/17 10:34:34;;;;;;;12.00;10.90;;;29.70;93.20;;;;;;5022250;28;20448;-74
2023/08/17 10:37:00;;;;;;;12.43;11.43;;;29.60;93.60;;;;;;5031843;28;20460;-74
2023/08/17 10:39:30;;;;;;;10.50;9.50;;;29.70;93.10;;;;;;5033684;28;20448;-74
2023/08/17 10:41:57;;;;;;;10.10;9.30;;;29.70;93.20;;;;;;5022638;28;20535;-74
2023/08/17 10:44:41;;;;;;;11.30;10.23;;;29.70;92.90;;;;;;5029308;28;20955;-74
2023/08/17 10:47:25;;;;;;;11.20;10.37;;;29.50;93.20;;;;;;5022112;28;20467;-74
2023/08/17 10:49:51;;;;;;;10.43;9.63;;;29.50;93.30;;;;;;5019447;28;20440;-74
2023/08/17 10:52:26;;;;;;;11.40;10.50;;;29.40;93.30;;;;;;5023179;28;20478;-75
2023/08/17 10:54:52;;;;;;;11.10;9.90;;;29.50;93.50;;;;;;5023520;28;20474;-75
2023/08/17 10:57:33;;;;;;;10.20;9.30;;;29.70;93.60;;;;;;5017166;28;20480;-76
2023/08/17 11:00:31;;;;;;;10.73;9.80;;;29.80;93.00;;;;;;5013710;28;20446;-76
2023/08/17 11:03:05;;;;;;;8.90;8.10;;;29.90;92.80;;;;;;5019871;28;20508;-76
2023/08/17 11:05:49;;;;;;;9.37;8.47;;;30.00;92.30;;;;;;5026879;28;20526;-76
2023/08/17 11:08:34;;;;;;;9.93;8.70;;;30.00;92.00;;;;;;5024710;28;20942;-74
2023/08/17 11:11:09;;;;;;;10.40;7.87;;;29.90;92.10;;;;;;5035918;28;20444;-75
2023/08/17 11:13:37;;;;;;;10.00;9.20;;;30.00;92.30;;;;;;5021795;28;20976;-75
2023/08/17 11:16:04;;;;;;;11.37;10.60;;;30.00;92.90;;;;;;5026904;28;20466;-74
2023/08/17 11:18:31;;;;;;;10.53;9.73;;;29.90;92.70;;;;;;5018770;28;20456;-74
2023/08/17 11:20:57;;;;;;;9.23;8.53;;;29.90;93.10;;;;;;5026346;28;20944;-74
2023/08/17 11:23:23;;;;;;;9.80;8.93;;;30.00;92.90;;;;;;5025751;28;20488;-73
2023/08/17 11:25:51;;;;;;;9.30;8.50;;;30.10;92.40;;;;;;5028737;28;20224;-74
2023/08/17 11:28:16;;;;;;;11.23;10.23;;;30.10;92.70;;;;;;5018411;28;20520;-73
2023/08/17 11:30:43;;;;;;;9.83;9.03;;;30.30;92.50;;;;;;5026114;28;20531;-73
2023/08/17 11:33:09;;;;;;;10.93;8.97;;;30.50;92.40;;;;;;5030088;28;20534;-71
2023/08/17 11:35:39;;;;;;;10.63;9.60;;;30.70;92.00;;;;;;5023727;28;20466;-71
2023/08/17 11:38:05;;;;;;;12.17;11.00;;;30.70;92.00;;;;;;5022883;28;20459;-71
2023/08/17 11:40:32;;;;;;;14.30;10.20;;;30.90;91.80;;;;;;5018492;28;20585;-71
2023/08/17 11:42:58;;;;;;;10.83;10.10;;;31.00;91.50;;;;;;5032041;28;20769;-71
2023/08/17 11:45:24;;;;;;;9.87;8.97;;;30.90;91.70;;;;;;5026148;28;20839;-71
2023/08/17 11:47:49;;;;;;;11.00;10.10;;;31.00;91.00;;;;;;5028535;28;20445;-72
2023/08/17 11:50:15;;;;;;;10.57;9.57;;;31.10;90.30;;;;;;5022811;28;20194;-71
2023/08/17 11:52:41;;;;;;;9.83;9.03;;;31.10;90.20;;;;;;5025555;28;20202;-72
2023/08/17 11:55:09;;;;;;;10.37;9.37;;;31.10;90.20;;;;;;5031190;28;20608;-74
2023/08/17 11:57:36;;;;;;;9.23;8.63;;;31.00;90.20;;;;;;5027881;28;20790;-74
2023/08/17 12:00:03;;;;;;;10.80;9.80;;;31.10;90.00;;;;;;5029206;28;20436;-75
2023/08/17 12:02:30;;;;;;;9.50;8.73;;;31.00;90.00;;;;;;5024417;28;20466;-74
2023/08/17 12:04:56;;;;;;;10.53;9.57;;;30.80;90.30;;;;;;5030674;28;20438;-75
2023/08/17 12:07:24;;;;;;;8.97;8.30;;;30.70;90.50;;;;;;5022867;28;20456;-75
2023/08/17 12:09:50;;;;;;;10.67;9.80;;;30.70;91.40;;;;;;5027896;28;20803;-79
2023/08/17 12:12:22;;;;;;;9.97;9.20;;;30.60;90.90;;;;;;5027366;28;20988;-76
2023/08/17 12:14:48;;;;;;;9.67;8.87;;;30.70;91.30;;;;;;5021849;28;20487;-73
2023/08/17 12:17:18;;;;;;;9.53;8.83;;;30.90;90.80;;;;;;5017376;28;20494;-79
2023/08/17 12:19:44;;;;;;;9.60;8.80;;;31.00;90.30;;;;;;5030634;28;20854;-76
2023/08/17 12:22:12;;;;;;;9.90;9.10;;;30.90;90.70;;;;;;5026555;28;20517;-78
2023/08/17 12:24:38;;;;;;;9.80;9.00;;;30.80;90.70;;;;;;5022911;28;20873;-76
2023/08/17 12:27:05;;;;;;;10.10;9.20;;;30.70;91.40;;;;;;5025192;28;20566;-74
2023/08/17 12:29:31;;;;;;;9.97;9.17;;;30.70;91.70;;;;;;5027690;28;20429;-74
2023/08/17 12:31:57;;;;;;;10.57;9.67;;;30.60;91.70;;;;;;5023901;28;21032;-73
2023/08/17 12:34:23;;;;;;;10.07;9.20;;;30.40;92.20;;;;;;5026547;28;20182;-76